createdAt,value
2022-11-05T10:41:33.902Z,9.60
2022-11-05T10:42:33.823Z,9.55
2022-11-05T10:43:33.794Z,9.59
2022-11-05T10:44:33.723Z,9.65
2022-11-05T10:45:33.691Z,9.72
2022-11-05T10:46:33.625Z,9.77
2022-11-05T10:47:33.590Z,9.81
2022-11-05T10:48:33.523Z,9.87
2022-11-05T10:49:33.467Z,9.87
2022-11-05T10:50:33.425Z,9.80
2022-11-05T10:51:33.348Z,9.70
2022-11-05T10:52:33.303Z,9.62
2022-11-05T10:53:33.244Z,9.54
2022-11-05T10:54:33.167Z,9.51
2022-11-05T10:55:33.130Z,9.45
2022-11-05T10:56:33.077Z,9.47
2022-11-05T10:57:33.035Z,9.45
2022-11-05T10:58:32.948Z,9.44
2022-11-05T10:59:32.918Z,9.44
2022-11-05T11:00:32.850Z,9.37
2022-11-05T11:01:32.988Z,9.27
2022-11-05T11:02:32.853Z,9.23
2022-11-05T11:03:32.680Z,9.11
2022-11-05T11:04:37.622Z,9.09
2022-11-05T11:05:33.560Z,9.12
2022-11-05T11:06:32.501Z,8.95
2022-11-05T11:07:32.451Z,8.93
2022-11-05T11:08:32.392Z,8.90
2022-11-05T11:09:32.332Z,8.83
2022-11-05T11:10:32.269Z,8.88
2022-11-05T11:11:32.220Z,8.96
2022-11-05T11:12:35.634Z,8.99
2022-11-05T11:13:33.074Z,9.15
2022-11-05T11:14:32.015Z,9.29
2022-11-05T11:15:31.941Z,9.42
2022-11-05T11:16:31.880Z,9.34
2022-11-05T11:17:31.814Z,9.40
2022-11-05T11:20:03.128Z,9.60
2022-11-05T11:21:03.064Z,9.69
2022-11-05T11:22:03.029Z,9.73
2022-11-05T11:23:02.982Z,9.66
2022-11-05T11:24:02.919Z,9.57
2022-11-05T11:25:02.867Z,9.57
2022-11-05T11:26:02.846Z,9.66
2022-11-05T11:27:02.798Z,9.66
2022-11-05T11:28:02.767Z,9.62
2022-11-05T11:29:02.699Z,9.62
2022-11-05T11:30:02.656Z,9.62
2022-11-05T11:31:02.580Z,9.57
2022-11-05T11:32:02.540Z,9.51
2022-11-05T11:33:02.500Z,9.48
2022-11-05T11:34:02.461Z,9.45
2022-11-05T11:35:02.409Z,9.52
2022-11-05T11:36:02.354Z,9.52
2022-11-05T11:37:02.291Z,9.52
2022-11-05T11:38:02.268Z,9.52
2022-11-05T11:39:02.203Z,9.45
2022-11-05T11:40:02.159Z,9.47
2022-11-05T11:41:02.104Z,9.45
2022-11-05T11:42:02.035Z,9.50
2022-11-05T11:43:01.991Z,9.45
2022-11-05T11:44:01.932Z,9.48
2022-11-05T11:45:01.894Z,9.52
2022-11-05T11:46:06.135Z,9.48
2022-11-05T11:47:02.795Z,9.51
2022-11-05T11:48:01.717Z,9.54
2022-11-05T11:49:01.694Z,9.51
2022-11-05T11:50:01.654Z,9.52
2022-11-05T11:51:01.555Z,9.42
2022-11-05T11:52:01.515Z,9.42
2022-11-05T11:53:01.465Z,9.45
2022-11-05T11:54:01.427Z,9.37
2022-11-05T11:55:01.356Z,9.33
2022-11-05T11:56:01.319Z,9.41
2022-11-05T11:57:01.259Z,9.37
2022-11-05T11:58:01.207Z,9.41
2022-11-05T11:59:01.157Z,9.41
2022-11-05T12:00:09.452Z,9.42
2022-11-05T12:01:02.058Z,9.51
2022-11-05T12:02:01.153Z,9.52
2022-11-05T12:03:02.323Z,9.62
2022-11-05T12:04:00.991Z,9.60
2022-11-05T12:05:00.858Z,9.60
2022-11-05T12:06:00.840Z,9.62
2022-11-05T12:07:00.741Z,9.54
2022-11-05T12:08:00.701Z,9.63
2022-11-05T12:09:06.570Z,9.66
2022-11-05T12:10:01.604Z,9.67
2022-11-05T12:11:00.550Z,9.62
2022-11-05T12:12:00.492Z,9.60
2022-11-05T12:13:00.434Z,9.60
2022-11-05T12:14:00.371Z,9.63
2022-11-05T12:15:00.332Z,9.59
2022-11-05T12:16:00.272Z,9.57
2022-11-05T12:17:00.213Z,9.52
2022-11-05T12:18:00.172Z,9.54
2022-11-05T12:19:00.135Z,9.54
2022-11-05T12:20:00.066Z,9.51
2022-11-05T12:21:00.003Z,9.44
2022-11-05T12:21:59.964Z,9.44
2022-11-05T12:22:59.890Z,9.42
2022-11-05T12:23:59.845Z,9.40
2022-11-05T12:24:59.807Z,9.41
2022-11-05T12:25:59.745Z,9.42
2022-11-05T12:26:59.665Z,9.45
2022-11-05T12:27:59.625Z,9.44
2022-11-05T12:29:17.743Z,9.44
2022-11-05T12:30:00.537Z,9.42
2022-11-05T12:30:59.466Z,9.42
2022-11-05T12:31:59.437Z,9.41
2022-11-05T12:32:59.405Z,9.34
2022-11-05T12:33:59.309Z,9.34
2022-11-05T12:34:59.248Z,9.34
2022-11-05T12:35:59.208Z,9.32
2022-11-05T12:36:59.154Z,9.30
2022-11-05T12:37:59.098Z,9.27
2022-11-05T12:38:59.029Z,9.23
2022-11-05T12:39:58.980Z,9.23
2022-11-05T12:40:58.940Z,9.33
2022-11-05T12:41:58.892Z,9.23
2022-11-05T12:42:58.838Z,9.19
2022-11-05T12:43:58.778Z,9.15
2022-11-05T12:44:58.721Z,9.29
2022-11-05T12:45:58.673Z,9.30
2022-11-05T12:46:58.611Z,9.30
2022-11-05T12:47:58.571Z,9.34
2022-11-05T12:48:58.513Z,9.32
2022-11-05T12:49:58.452Z,9.36
2022-11-05T12:50:58.413Z,9.40
2022-11-05T12:51:58.353Z,9.50
2022-11-05T12:52:58.293Z,9.36
2022-11-05T12:53:58.242Z,9.41
2022-11-05T12:54:58.197Z,9.36
2022-11-05T12:55:58.145Z,9.37
2022-11-05T12:56:58.104Z,9.37
2022-11-05T12:57:58.052Z,9.44
2022-11-05T12:58:57.984Z,9.34
2022-11-05T12:59:57.946Z,9.30
2022-11-05T13:00:57.915Z,9.34
2022-11-05T13:01:57.994Z,9.26
2022-11-05T13:02:57.787Z,9.22
2022-11-05T13:03:57.744Z,9.15
2022-11-05T13:04:57.697Z,9.19
2022-11-05T13:06:02.933Z,9.18
2022-11-05T13:06:58.605Z,9.23
2022-11-05T13:07:57.541Z,9.19
2022-11-05T13:08:57.481Z,9.24
2022-11-05T13:09:57.430Z,9.26
2022-11-05T13:10:57.369Z,9.27
2022-11-05T13:11:57.348Z,9.27
2022-11-05T13:12:57.276Z,9.29
2022-11-05T13:13:57.230Z,9.26
2022-11-05T13:14:57.198Z,9.33
2022-11-05T13:15:57.131Z,9.30
2022-11-05T13:16:57.088Z,9.24
2022-11-05T13:17:57.039Z,9.26
2022-11-05T13:18:56.980Z,9.27
2022-11-05T13:19:56.939Z,9.37
2022-11-05T13:20:56.904Z,9.32
2022-11-05T13:21:56.861Z,9.30
2022-11-05T13:22:56.799Z,9.33
2022-11-05T13:23:56.759Z,9.36
2022-11-05T13:24:56.693Z,9.42
2022-11-05T13:25:56.642Z,9.34
2022-11-05T13:26:56.603Z,9.36
2022-11-05T13:27:56.573Z,9.34
2022-11-05T13:28:56.513Z,9.36
2022-11-05T13:29:56.472Z,9.40
2022-11-05T13:30:56.422Z,9.42
2022-11-05T13:31:56.374Z,9.45
2022-11-05T13:32:56.322Z,9.42
2022-11-05T13:33:56.275Z,9.45
2022-11-05T13:34:56.215Z,9.50
2022-11-05T13:35:56.172Z,9.45
2022-11-05T13:36:56.132Z,9.44
2022-11-05T13:37:56.107Z,9.36
2022-11-05T13:38:56.012Z,9.30
2022-11-05T13:39:55.965Z,9.32
2022-11-05T13:40:55.926Z,9.30
2022-11-05T13:41:55.867Z,9.30
2022-11-05T13:42:55.847Z,9.32
2022-11-05T13:43:55.774Z,9.32
2022-11-05T13:44:55.707Z,9.26
2022-11-05T13:45:55.665Z,9.26
2022-11-05T13:46:55.607Z,9.26
2022-11-05T13:47:55.588Z,9.26
2022-11-05T13:48:55.509Z,9.24
2022-11-05T13:49:55.459Z,9.18
2022-11-05T13:50:55.408Z,9.22
2022-11-05T13:51:55.369Z,9.22
2022-11-05T13:52:55.308Z,9.18
2022-11-05T13:53:55.280Z,9.16
2022-11-05T13:54:55.211Z,9.15
2022-11-05T13:55:55.151Z,9.16
2022-11-05T13:56:55.105Z,9.23
2022-11-05T13:57:55.053Z,9.19
2022-11-05T13:58:54.990Z,9.16
2022-11-05T13:59:54.942Z,9.14
2022-11-05T14:00:54.942Z,9.09
2022-11-05T14:01:54.976Z,9.08
2022-11-05T14:02:54.801Z,9.14
2022-11-05T14:03:54.772Z,9.12
2022-11-05T14:05:00.549Z,9.08
2022-11-05T14:05:55.750Z,9.12
2022-11-05T14:06:54.601Z,9.09
2022-11-05T14:07:54.553Z,9.14
2022-11-05T14:08:54.534Z,9.12
2022-11-05T14:09:54.483Z,9.08
2022-11-05T14:10:54.414Z,9.09
2022-11-05T14:11:54.356Z,9.11
2022-11-05T14:12:54.305Z,9.12
2022-11-05T14:13:54.266Z,9.15
2022-11-05T14:14:58.620Z,9.12
2022-11-05T14:15:55.166Z,9.18
2022-11-05T14:16:54.134Z,9.16
2022-11-05T14:17:54.067Z,9.22
2022-11-05T14:18:54.007Z,9.26
2022-11-05T14:19:53.997Z,9.30
2022-11-05T14:20:53.937Z,9.32
2022-11-05T14:21:53.878Z,9.36
2022-11-05T14:22:53.825Z,9.42
2022-11-05T14:23:53.788Z,9.41
2022-11-05T14:24:53.717Z,9.42
2022-11-05T14:25:53.660Z,9.37
2022-11-05T14:26:53.628Z,9.40
2022-11-05T14:27:53.558Z,9.40
2022-11-05T14:28:53.510Z,9.36
2022-11-05T14:29:53.470Z,9.32
2022-11-05T14:30:53.439Z,9.27
2022-11-05T14:32:08.234Z,9.26
2022-11-05T14:32:54.322Z,9.19
2022-11-05T14:33:53.271Z,9.16
2022-11-05T14:34:53.229Z,9.14
2022-11-05T14:35:53.182Z,9.03
2022-11-05T14:36:53.131Z,9.03
2022-11-05T14:37:53.082Z,8.98
2022-11-05T14:38:53.031Z,8.98
2022-11-05T14:39:52.992Z,9.01
2022-11-05T14:40:52.953Z,8.88
2022-11-05T14:41:52.881Z,8.89
2022-11-05T14:42:52.823Z,8.88
2022-11-05T14:43:52.783Z,8.83
2022-11-05T14:44:52.714Z,8.81
2022-11-05T14:45:52.673Z,8.72
2022-11-05T14:46:52.625Z,8.74
2022-11-05T14:47:52.576Z,8.71
2022-11-05T14:48:52.523Z,8.74
2022-11-05T14:49:52.466Z,8.70
2022-11-05T14:50:52.455Z,8.63
2022-11-05T14:51:52.365Z,8.60
2022-11-05T14:52:52.324Z,8.57
2022-11-05T14:53:52.276Z,8.52
2022-11-05T14:54:52.227Z,8.49
2022-11-05T14:55:52.178Z,8.44
2022-11-05T14:58:23.516Z,8.31
2022-11-05T14:59:23.484Z,8.34
2022-11-05T15:00:23.464Z,8.28
2022-11-05T15:01:23.569Z,8.29
2022-11-05T15:02:23.562Z,8.29
2022-11-05T15:03:23.412Z,8.28
2022-11-05T15:04:23.406Z,8.23
2022-11-05T15:05:23.337Z,8.16
2022-11-05T15:06:23.320Z,8.12
2022-11-05T15:07:23.269Z,8.10
2022-11-05T15:08:23.289Z,8.05
2022-11-05T15:09:23.245Z,8.01
2022-11-05T15:10:23.200Z,7.98
2022-11-05T15:11:23.199Z,7.94
2022-11-05T15:12:23.151Z,7.88
2022-11-05T15:13:23.122Z,7.84
2022-11-05T15:14:23.109Z,7.83
2022-11-05T15:15:23.081Z,7.80
2022-11-05T15:16:23.080Z,7.77
2022-11-05T15:17:23.027Z,7.66
2022-11-05T15:18:23.013Z,7.64
2022-11-05T15:19:22.972Z,7.55
2022-11-05T15:20:22.954Z,7.46
2022-11-05T15:21:22.921Z,7.46
2022-11-05T15:22:22.925Z,7.39
2022-11-05T15:23:22.886Z,7.31
2022-11-05T15:24:22.873Z,7.24
2022-11-05T15:25:22.844Z,7.15
2022-11-05T15:26:22.822Z,7.10
2022-11-05T15:27:22.799Z,7.03
2022-11-05T15:28:22.784Z,6.97
2022-11-05T15:29:22.754Z,6.99
2022-11-05T15:30:22.746Z,6.88
2022-11-05T15:31:22.723Z,6.83
2022-11-05T15:32:22.705Z,6.82
2022-11-05T15:33:22.674Z,6.85
2022-11-05T15:34:22.696Z,6.75
2022-11-05T15:35:22.636Z,6.67
2022-11-05T15:36:22.625Z,6.68
2022-11-05T15:37:22.616Z,6.70
2022-11-05T15:38:22.596Z,6.71
2022-11-05T15:39:29.495Z,6.73
2022-11-05T15:40:23.569Z,6.71
2022-11-05T15:41:22.535Z,6.63
2022-11-05T15:42:22.546Z,6.68
2022-11-05T15:43:22.487Z,6.73
2022-11-05T15:44:22.475Z,6.67
2022-11-05T15:45:22.459Z,6.67
2022-11-05T15:46:22.437Z,6.61
2022-11-05T15:47:22.408Z,6.61
2022-11-05T15:48:22.448Z,6.57
2022-11-05T15:49:22.369Z,6.50
2022-11-05T15:50:22.349Z,6.52
2022-11-05T15:51:22.340Z,6.42
2022-11-05T15:52:22.309Z,6.42
2022-11-05T15:53:44.032Z,6.34
2022-11-05T15:54:30.399Z,6.31
2022-11-05T15:55:23.271Z,6.24
2022-11-05T15:56:22.251Z,6.19
2022-11-05T15:57:22.255Z,6.15
2022-11-05T15:58:22.230Z,6.09
2022-11-05T15:59:22.180Z,6.02
2022-11-05T16:00:22.171Z,5.94
2022-11-05T16:01:22.214Z,5.90
2022-11-05T16:02:22.350Z,5.90
2022-11-05T16:03:22.144Z,5.85
2022-11-05T16:04:22.122Z,5.77
2022-11-05T16:05:22.102Z,5.75
2022-11-05T16:06:22.093Z,5.62
2022-11-05T16:07:22.084Z,5.61
2022-11-05T16:08:22.093Z,5.62
2022-11-05T16:09:22.065Z,5.54
2022-11-05T16:10:22.055Z,5.51
2022-11-05T16:11:22.047Z,5.54
2022-11-05T16:12:22.037Z,5.55
2022-11-05T16:13:22.014Z,5.50
2022-11-05T16:14:22.046Z,5.48
2022-11-05T16:15:22.023Z,5.41
2022-11-05T16:16:22.013Z,5.29
2022-11-05T16:17:21.993Z,5.24
2022-11-05T16:18:21.996Z,5.18
2022-11-05T16:19:22.003Z,5.16
2022-11-05T16:20:21.978Z,5.04
2022-11-05T16:21:21.987Z,4.98
2022-11-05T16:22:21.978Z,4.91
2022-11-05T16:23:21.976Z,4.85
2022-11-05T16:24:26.530Z,4.82
2022-11-05T16:25:22.977Z,4.74
2022-11-05T16:26:41.157Z,4.67
2022-11-05T16:27:22.965Z,4.60
2022-11-05T16:28:21.948Z,4.54
2022-11-05T16:29:21.959Z,4.46
2022-11-05T16:30:21.957Z,4.43
2022-11-05T16:31:21.950Z,4.41
2022-11-05T16:32:25.300Z,4.42
2022-11-05T16:33:22.949Z,4.43
2022-11-05T16:34:21.949Z,4.41
2022-11-05T16:35:21.941Z,4.36
2022-11-05T16:36:21.919Z,4.36
2022-11-05T16:37:21.920Z,4.35
2022-11-05T16:38:21.932Z,4.39
2022-11-05T16:39:21.930Z,4.48
2022-11-05T16:40:22.020Z,4.48
2022-11-05T16:41:21.952Z,4.48
2022-11-05T16:42:21.987Z,4.51
2022-11-05T16:43:21.991Z,4.53
2022-11-05T16:44:22.031Z,4.53
2022-11-05T16:45:21.985Z,4.51
2022-11-05T16:46:22.021Z,4.45
2022-11-05T16:47:22.130Z,4.48
2022-11-05T16:48:22.012Z,4.49
2022-11-05T16:49:22.004Z,4.53
2022-11-05T16:50:22.068Z,4.59
2022-11-05T16:51:27.265Z,4.54
2022-11-05T16:52:22.983Z,4.57
2022-11-05T16:53:21.996Z,4.60
2022-11-05T16:54:21.981Z,4.59
2022-11-05T16:55:22.004Z,4.60
2022-11-05T16:56:21.982Z,4.60
2022-11-05T16:57:21.984Z,4.63
2022-11-05T16:58:21.993Z,4.69
2022-11-05T16:59:22.025Z,4.64
2022-11-05T17:00:22.008Z,4.64
2022-11-05T17:01:22.076Z,4.57
2022-11-05T17:02:22.162Z,4.56
2022-11-05T17:03:21.999Z,4.51
2022-11-05T17:04:22.006Z,4.53
2022-11-05T17:05:22.025Z,4.54
2022-11-05T17:06:22.019Z,4.56
2022-11-05T17:07:22.018Z,4.57
2022-11-05T17:08:22.035Z,4.57
2022-11-05T17:09:22.029Z,4.56
2022-11-05T17:10:22.044Z,4.54
2022-11-05T17:11:22.037Z,4.57
2022-11-05T17:12:22.057Z,4.54
2022-11-05T17:13:22.065Z,4.51
2022-11-05T17:14:22.080Z,4.53
2022-11-05T17:15:22.093Z,4.60
2022-11-05T17:16:22.070Z,4.56
2022-11-05T17:17:22.079Z,4.53
2022-11-05T17:18:22.485Z,4.54
2022-11-05T17:19:22.091Z,4.49
2022-11-05T17:20:22.109Z,4.48
2022-11-05T17:21:22.121Z,4.43
2022-11-05T17:22:22.100Z,4.36
2022-11-05T17:23:22.121Z,4.39
2022-11-05T17:24:22.120Z,4.36
2022-11-05T17:25:22.133Z,4.45
2022-11-05T17:26:22.121Z,4.36
2022-11-05T17:27:22.122Z,4.35
2022-11-05T17:28:22.130Z,4.36
2022-11-05T17:29:22.149Z,4.34
2022-11-05T17:30:22.161Z,4.27
2022-11-05T17:31:22.165Z,4.34
2022-11-05T17:32:22.206Z,4.34
2022-11-05T17:33:22.230Z,4.30
2022-11-05T17:34:22.163Z,4.34
2022-11-05T17:35:22.195Z,4.35
2022-11-05T17:36:22.193Z,4.35
2022-11-05T17:37:22.203Z,4.39
2022-11-05T17:38:22.210Z,4.43
2022-11-05T17:39:24.909Z,4.39
2022-11-05T17:40:23.233Z,4.41
2022-11-05T17:41:22.237Z,4.43
2022-11-05T17:42:22.217Z,4.38
2022-11-05T17:43:22.227Z,4.39
2022-11-05T17:44:22.236Z,4.42
2022-11-05T17:45:22.234Z,4.42
2022-11-05T17:46:22.253Z,4.41
2022-11-05T17:47:22.249Z,4.45
2022-11-05T17:48:22.257Z,4.42
2022-11-05T17:49:22.259Z,4.41
2022-11-05T17:50:22.267Z,4.46
2022-11-05T17:51:22.292Z,4.48
2022-11-05T17:52:22.266Z,4.49
2022-11-05T17:53:22.288Z,4.48
2022-11-05T17:54:22.296Z,4.56
2022-11-05T17:55:22.300Z,4.59
2022-11-05T17:56:32.555Z,4.60
2022-11-05T17:57:23.327Z,4.63
2022-11-05T17:58:22.331Z,4.64
2022-11-05T17:59:22.328Z,4.66
2022-11-05T18:00:22.339Z,4.72
2022-11-05T18:01:22.503Z,4.72
2022-11-05T18:02:22.457Z,4.79
2022-11-05T18:03:22.384Z,4.77
2022-11-05T18:04:22.369Z,4.83
2022-11-05T18:05:22.381Z,4.77
2022-11-05T18:06:22.379Z,4.78
2022-11-05T18:07:22.399Z,4.78
2022-11-05T18:08:22.399Z,4.79
2022-11-05T18:09:22.401Z,4.79
2022-11-05T18:10:22.428Z,4.75
2022-11-05T18:11:22.441Z,4.79
2022-11-05T18:12:22.422Z,4.82
2022-11-05T18:13:22.528Z,4.77
2022-11-05T18:14:24.193Z,4.78
2022-11-05T18:15:22.442Z,4.82
2022-11-05T18:16:22.460Z,4.79
2022-11-05T18:17:22.463Z,4.82
2022-11-05T18:18:22.461Z,4.85
2022-11-05T18:19:22.473Z,4.78
2022-11-05T18:20:22.492Z,4.88
2022-11-05T18:21:22.503Z,4.86
2022-11-05T18:22:22.491Z,4.78
2022-11-05T18:23:22.503Z,4.79
2022-11-05T18:24:22.494Z,4.83
2022-11-05T18:25:22.504Z,4.82
2022-11-05T18:26:22.515Z,4.78
2022-11-05T18:27:22.522Z,4.77
2022-11-05T18:28:22.525Z,4.77
2022-11-05T18:29:22.532Z,4.75
2022-11-05T18:30:22.532Z,4.74
2022-11-05T18:31:22.555Z,4.69
2022-11-05T18:32:22.542Z,4.72
2022-11-05T18:33:22.548Z,4.71
2022-11-05T18:34:22.568Z,4.71
2022-11-05T18:35:22.565Z,4.72
2022-11-05T18:36:22.575Z,4.64
2022-11-05T18:37:22.567Z,4.67
2022-11-05T18:38:22.568Z,4.59
2022-11-05T18:39:22.587Z,4.54
2022-11-05T18:40:22.577Z,4.45
2022-11-05T18:41:22.625Z,4.46
2022-11-05T18:42:22.616Z,4.43
2022-11-05T18:43:22.629Z,4.41
2022-11-05T18:44:22.645Z,4.39
2022-11-05T18:45:28.466Z,4.34
2022-11-05T18:46:51.151Z,4.34
2022-11-05T18:47:23.658Z,4.28
2022-11-05T18:48:22.678Z,4.20
2022-11-05T18:49:22.691Z,4.16
2022-11-05T18:50:22.698Z,4.09
2022-11-05T18:51:22.711Z,4.16
2022-11-05T18:52:22.732Z,4.10
2022-11-05T18:53:22.790Z,4.09
2022-11-05T18:54:22.739Z,4.09
2022-11-05T18:55:22.747Z,4.06
2022-11-05T18:56:22.749Z,4.06
2022-11-05T18:57:22.791Z,4.09
2022-11-05T18:58:22.782Z,4.06
2022-11-05T18:59:36.337Z,3.98
2022-11-05T19:00:23.802Z,4.00
2022-11-05T19:01:22.888Z,4.00
2022-11-05T19:02:22.958Z,3.98
2022-11-05T19:03:22.852Z,3.90
2022-11-05T19:04:22.843Z,3.96
2022-11-05T19:05:29.149Z,3.85
2022-11-05T19:06:23.893Z,3.82
2022-11-05T19:07:22.928Z,3.82
2022-11-05T19:08:22.910Z,3.82
2022-11-05T19:09:22.931Z,3.78
2022-11-05T19:10:22.943Z,3.76
2022-11-05T19:11:22.962Z,3.76
2022-11-05T19:12:22.986Z,3.80
2022-11-05T19:13:22.986Z,3.76
2022-11-05T19:14:23.004Z,3.69
2022-11-05T19:15:23.016Z,3.66
2022-11-05T19:16:23.022Z,3.66
2022-11-05T19:17:23.066Z,3.63
2022-11-05T19:18:23.056Z,3.55
2022-11-05T19:19:23.074Z,3.52
2022-11-05T19:20:23.091Z,3.52
2022-11-05T19:21:23.115Z,3.51
2022-11-05T19:22:23.126Z,3.51
2022-11-05T19:23:23.136Z,3.49
2022-11-05T19:24:23.146Z,3.45
2022-11-05T19:25:23.167Z,3.42
2022-11-05T19:26:28.153Z,3.32
2022-11-05T19:27:24.208Z,3.25
2022-11-05T19:28:23.197Z,3.20
2022-11-05T19:29:23.199Z,3.14
2022-11-05T19:30:23.200Z,3.15
2022-11-05T19:31:23.215Z,3.11
2022-11-05T19:32:23.210Z,3.09
2022-11-05T19:33:23.249Z,3.08
2022-11-05T19:34:23.226Z,3.09
2022-11-05T19:35:23.250Z,3.09
2022-11-05T19:36:23.256Z,3.07
2022-11-05T19:37:23.251Z,3.04
2022-11-05T19:38:23.271Z,3.00
2022-11-05T19:39:23.269Z,3.02
2022-11-05T19:40:23.271Z,2.91
2022-11-05T19:41:23.280Z,2.87
2022-11-05T19:42:23.300Z,2.89
2022-11-05T19:43:23.300Z,2.87
2022-11-05T19:44:23.310Z,2.82
2022-11-05T19:45:43.710Z,2.78
2022-11-05T19:46:24.331Z,2.79
2022-11-05T19:47:23.341Z,2.78
2022-11-05T19:48:23.704Z,2.61
2022-11-05T19:49:23.392Z,2.63
2022-11-05T19:50:23.403Z,2.65
2022-11-05T19:51:23.432Z,2.65
2022-11-05T19:52:23.442Z,2.61
2022-11-05T19:53:23.472Z,2.61
2022-11-05T19:54:23.485Z,2.55
2022-11-05T19:55:23.523Z,2.51
2022-11-05T19:56:23.523Z,2.54
2022-11-05T19:57:23.562Z,2.53
2022-11-05T19:58:23.563Z,2.54
2022-11-05T19:59:23.583Z,2.53
2022-11-05T20:00:23.594Z,2.50
2022-11-05T20:01:23.739Z,2.48
2022-11-05T20:02:23.751Z,2.48
2022-11-05T20:03:23.727Z,2.45
2022-11-05T20:04:23.684Z,2.40
2022-11-05T20:05:23.694Z,2.28
2022-11-05T20:06:23.715Z,2.28
2022-11-05T20:07:23.737Z,2.24
2022-11-05T20:08:23.755Z,2.21
2022-11-05T20:09:23.776Z,2.18
2022-11-05T20:10:23.776Z,2.18
2022-11-05T20:11:23.804Z,2.25
2022-11-05T20:12:23.827Z,2.11
2022-11-05T20:13:23.866Z,2.12
2022-11-05T20:14:23.875Z,2.06
2022-11-05T20:15:23.915Z,2.00
2022-11-05T20:16:23.929Z,2.01
2022-11-05T20:17:23.967Z,2.03
2022-11-05T20:18:23.997Z,2.01
2022-11-05T20:19:24.016Z,2.01
2022-11-05T20:20:24.057Z,2.01
2022-11-05T20:21:24.077Z,2.01
2022-11-05T20:22:24.088Z,2.00
2022-11-05T20:23:24.138Z,2.06
2022-11-05T20:24:25.477Z,1.99
2022-11-05T20:25:24.168Z,1.92
2022-11-05T20:26:24.199Z,1.92
2022-11-05T20:27:24.227Z,1.91
2022-11-05T20:28:24.258Z,1.89
2022-11-05T20:29:24.300Z,1.91
2022-11-05T20:30:24.290Z,1.91
2022-11-05T20:31:24.330Z,1.89
2022-11-05T20:32:24.379Z,1.89
2022-11-05T20:33:24.400Z,1.87
2022-11-05T20:34:24.418Z,1.89
2022-11-05T20:35:24.440Z,1.84
2022-11-05T20:36:24.491Z,1.81
2022-11-05T20:37:24.518Z,1.84
2022-11-05T20:38:24.552Z,1.78
2022-11-05T20:39:24.591Z,1.73
2022-11-05T20:40:24.603Z,1.77
2022-11-05T20:41:24.631Z,1.74
2022-11-05T20:42:24.671Z,1.67
2022-11-05T20:43:29.142Z,1.69
2022-11-05T20:44:25.767Z,1.69
2022-11-05T20:45:24.753Z,1.64
2022-11-05T20:46:24.783Z,1.66
2022-11-05T20:47:24.820Z,1.60
2022-11-05T20:48:24.862Z,1.63
2022-11-05T20:49:25.811Z,1.64
2022-11-05T20:50:24.892Z,1.60
2022-11-05T20:51:24.915Z,1.60
2022-11-05T20:52:24.943Z,1.60
2022-11-05T20:53:25.001Z,1.59
2022-11-05T20:54:25.009Z,1.56
2022-11-05T20:55:25.082Z,1.53
2022-11-05T20:56:25.082Z,1.53
2022-11-05T20:57:25.103Z,1.49
2022-11-05T20:58:25.145Z,1.52
2022-11-05T20:59:25.155Z,1.44
2022-11-05T21:00:25.205Z,1.49
2022-11-05T21:01:25.317Z,1.49
2022-11-05T21:02:25.469Z,1.49
2022-11-05T21:03:25.315Z,1.45
2022-11-05T21:04:25.346Z,1.45
2022-11-05T21:05:25.374Z,1.42
2022-11-05T21:06:25.405Z,1.38
2022-11-05T21:07:25.446Z,1.46
2022-11-05T21:08:25.508Z,1.48
2022-11-05T21:09:25.517Z,1.49
2022-11-05T21:10:25.556Z,1.52
2022-11-05T21:11:25.593Z,1.53
2022-11-05T21:12:25.627Z,1.49
2022-11-05T21:13:25.667Z,1.57
2022-11-05T21:14:25.697Z,1.56
2022-11-05T21:15:25.715Z,1.59
2022-11-05T21:16:25.746Z,1.64
2022-11-05T21:17:25.789Z,1.66
2022-11-05T21:18:25.818Z,1.75
2022-11-05T21:19:25.856Z,1.80
2022-11-05T21:20:25.888Z,1.81
2022-11-05T21:21:25.918Z,1.89
2022-11-05T21:22:25.956Z,1.92
2022-11-05T21:23:25.989Z,1.92
2022-11-05T21:24:26.019Z,1.99
2022-11-05T21:25:26.038Z,1.99
2022-11-05T21:26:26.089Z,2.11
2022-11-05T21:27:26.115Z,1.99
2022-11-05T21:28:26.159Z,2.03
2022-11-05T21:29:26.170Z,2.10
2022-11-05T21:30:26.211Z,2.10
2022-11-05T21:31:26.230Z,2.12
2022-11-05T21:32:26.280Z,2.15
2022-11-05T21:33:26.328Z,2.17
2022-11-05T21:34:26.336Z,2.21
2022-11-05T21:35:26.370Z,2.12
2022-11-05T21:36:26.404Z,2.12
2022-11-05T21:37:26.422Z,2.11
2022-11-05T21:38:26.489Z,2.10
2022-11-05T21:39:26.501Z,2.12
2022-11-05T21:40:26.522Z,2.18
2022-11-05T21:41:26.570Z,2.18
2022-11-05T21:42:26.592Z,2.21
2022-11-05T21:43:26.625Z,2.22
2022-11-05T21:44:26.662Z,2.25
2022-11-05T21:45:26.685Z,2.29
2022-11-05T21:46:26.713Z,2.29
2022-11-05T21:47:26.743Z,2.32
2022-11-05T21:48:26.802Z,2.29
2022-11-05T21:49:26.813Z,2.36
2022-11-05T21:50:26.841Z,2.37
2022-11-05T21:51:26.878Z,2.39
2022-11-05T21:52:26.895Z,2.40
2022-11-05T21:53:26.942Z,2.48
2022-11-05T21:54:26.965Z,2.47
2022-11-05T21:55:27.001Z,2.47
2022-11-05T21:56:27.035Z,2.50
2022-11-05T21:57:27.054Z,2.53
2022-11-05T21:58:27.105Z,2.51
2022-11-05T21:59:27.127Z,2.54
2022-11-05T22:00:27.154Z,2.57
2022-11-05T22:01:27.293Z,2.55
2022-11-05T22:02:27.389Z,2.48
2022-11-05T22:03:27.275Z,2.54
2022-11-05T22:04:27.286Z,2.54
2022-11-05T22:05:27.318Z,2.53
2022-11-05T22:06:27.357Z,2.54
2022-11-05T22:07:27.378Z,2.57
2022-11-05T22:08:27.434Z,2.61
2022-11-05T22:09:27.440Z,2.61
2022-11-05T22:10:27.494Z,2.60
2022-11-05T22:11:27.531Z,2.61
2022-11-05T22:12:27.560Z,2.66
2022-11-05T22:13:27.606Z,2.65
2022-11-05T22:14:27.618Z,2.68
2022-11-05T22:15:27.635Z,2.71
2022-11-05T22:16:27.678Z,2.71
2022-11-05T22:17:27.708Z,2.73
2022-11-05T22:18:27.748Z,2.76
2022-11-05T22:19:27.749Z,2.78
2022-11-05T22:20:27.789Z,2.81
2022-11-05T22:21:27.810Z,2.81
2022-11-05T22:22:27.850Z,2.86
2022-11-05T22:23:27.880Z,2.86
2022-11-05T22:24:27.889Z,2.94
2022-11-05T22:26:59.364Z,2.96
2022-11-05T22:27:59.314Z,2.91
2022-11-05T22:28:59.285Z,2.96
2022-11-05T22:29:59.223Z,3.00
2022-11-05T22:30:59.182Z,3.05
2022-11-05T22:31:59.127Z,3.00
2022-11-05T22:32:59.079Z,2.97
2022-11-05T22:33:59.037Z,2.99
2022-11-05T22:34:58.997Z,3.00
2022-11-05T22:35:58.947Z,3.05
2022-11-05T22:36:58.886Z,3.04
2022-11-05T22:37:58.849Z,3.02
2022-11-05T22:39:49.195Z,3.02
2022-11-05T22:40:49.167Z,3.05
2022-11-05T22:41:49.181Z,3.04
2022-11-05T22:42:49.106Z,2.99
2022-11-05T22:43:49.077Z,2.97
2022-11-05T22:44:49.077Z,2.97
2022-11-05T22:45:49.029Z,2.96
2022-11-05T22:46:49.016Z,2.94
2022-11-05T22:47:48.971Z,2.96
2022-11-05T22:48:48.949Z,2.91
2022-11-05T22:49:48.918Z,2.97
2022-11-05T22:50:48.901Z,3.00
2022-11-05T22:51:48.880Z,2.97
2022-11-05T22:52:48.827Z,3.00
2022-11-05T22:53:48.791Z,3.04
2022-11-05T22:54:48.770Z,2.97
2022-11-05T22:55:48.724Z,3.05
2022-11-05T22:56:48.691Z,3.04
2022-11-05T22:57:48.649Z,3.05
2022-11-05T22:58:48.624Z,3.05
2022-11-05T22:59:48.590Z,3.11
2022-11-05T23:00:48.568Z,3.11
2022-11-05T23:01:48.630Z,3.14
2022-11-05T23:02:48.561Z,3.14
2022-11-05T23:03:48.481Z,3.14
2022-11-05T23:04:48.452Z,3.09
2022-11-05T23:05:48.411Z,3.15
2022-11-05T23:06:48.390Z,3.22
2022-11-05T23:07:48.361Z,3.14
2022-11-05T23:08:48.335Z,3.17
2022-11-05T23:09:48.293Z,3.11
2022-11-05T23:10:48.273Z,3.15
2022-11-05T23:11:48.235Z,3.17
2022-11-05T23:12:48.222Z,3.17
2022-11-05T23:13:48.242Z,3.23
2022-11-05T23:14:48.183Z,3.20
2022-11-05T23:15:48.144Z,3.18
2022-11-05T23:16:48.122Z,3.25
2022-11-05T23:17:48.084Z,3.30
2022-11-05T23:18:48.079Z,3.25
2022-11-05T23:19:48.024Z,3.26
2022-11-05T23:20:48.023Z,3.27
2022-11-05T23:21:47.985Z,3.20
2022-11-05T23:22:47.961Z,3.25
2022-11-05T23:23:47.935Z,3.22
2022-11-05T23:24:47.914Z,3.25
2022-11-05T23:25:47.916Z,3.29
2022-11-05T23:26:47.865Z,3.22
2022-11-05T23:27:47.846Z,3.29
2022-11-05T23:28:47.816Z,3.30
2022-11-05T23:29:47.796Z,3.29
2022-11-05T23:30:47.776Z,3.32
2022-11-05T23:31:47.738Z,3.30
2022-11-05T23:32:47.718Z,3.32
2022-11-05T23:33:47.686Z,3.33
2022-11-05T23:34:47.677Z,3.35
2022-11-05T23:35:47.661Z,3.36
2022-11-05T23:36:47.626Z,3.42
2022-11-05T23:37:47.605Z,3.36
2022-11-05T23:38:47.566Z,3.35
2022-11-05T23:39:47.537Z,3.37
2022-11-05T23:40:47.530Z,3.42
2022-11-05T23:41:47.469Z,3.45
2022-11-05T23:42:47.458Z,3.44
2022-11-05T23:43:47.430Z,3.48
2022-11-05T23:44:47.401Z,3.46
2022-11-05T23:45:47.359Z,3.49
2022-11-05T23:46:47.456Z,3.48
2022-11-05T23:47:47.300Z,3.51
2022-11-05T23:48:47.279Z,3.56
2022-11-05T23:49:47.240Z,3.56
2022-11-05T23:50:47.219Z,3.56
2022-11-05T23:51:47.169Z,3.59
2022-11-05T23:52:47.148Z,3.55
2022-11-05T23:53:47.103Z,3.56
2022-11-05T23:54:47.082Z,3.62
2022-11-05T23:55:47.040Z,3.60
2022-11-05T23:56:47.034Z,3.55
2022-11-05T23:57:46.998Z,3.59
2022-11-05T23:58:46.959Z,3.69
2022-11-05T23:59:46.922Z,3.62
